Time;durP1;ratioP1;P1;durP2;ratioP2;P2;SDS_P1;SDS_P2;PMS_P1;PMS_P2;Temp;Humidity;BMP_temperature;BMP_pressure;BME280_temperature;BME280_humidity;BME280_pressure;Samples;Min_cycle;Max_cycle;Signal;HPM_P1;HPM_P2
2024/02/16 00:02:16;;;;;;;2.75;1.10;;;;;;;21.52;47.25;100904.25;5059558;27;121828;-77
2024/02/16 00:04:41;;;;;;;2.40;0.80;;;;;;;21.52;47.21;100907.78;5055721;27;105806;-77
2024/02/16 00:07:06;;;;;;;2.63;1.35;;;;;;;21.52;47.37;100905.13;5054094;27;97564;-76
2024/02/16 00:09:33;;;;;;;3.08;0.90;;;;;;;21.53;47.08;100903.31;5061423;27;97044;-77
2024/02/16 00:11:58;;;;;;;2.30;1.52;;;;;;;21.52;47.34;100907.78;5057889;27;98354;-77
2024/02/16 00:14:24;;;;;;;2.50;1.27;;;;;;;21.52;47.00;100904.25;5061318;27;96784;-77
2024/02/16 00:16:49;;;;;;;1.75;0.70;;;;;;;21.53;46.94;100900.66;5070082;27;96815;-77
2024/02/16 00:19:15;;;;;;;3.05;0.85;;;;;;;21.51;47.11;100903.38;5057498;27;96896;-77
2024/02/16 00:21:42;;;;;;;3.05;1.48;;;;;;;21.52;47.09;100899.81;5069731;27;97379;-77
2024/02/16 00:24:08;;;;;;;2.10;1.52;;;;;;;21.52;47.05;100889.19;5054258;27;97218;-76
2024/02/16 00:26:33;;;;;;;2.50;1.45;;;;;;;21.52;47.00;100877.72;5055606;27;97682;-76
2024/02/16 00:28:58;;;;;;;1.95;1.38;;;;;;;21.52;46.88;100894.50;5067399;27;96885;-77
2024/02/16 00:31:24;;;;;;;2.15;0.88;;;;;;;21.52;47.21;100891.84;5048565;27;126741;-77
2024/02/16 00:33:49;;;;;;;2.70;1.73;;;;;;;21.53;47.04;100884.75;5042326;27;98740;-77
2024/02/16 00:36:14;;;;;;;2.50;0.68;;;;;;;21.52;47.23;100883.88;5067527;27;99939;-76
2024/02/16 00:38:40;;;;;;;3.88;1.13;;;;;;;21.53;46.98;100890.06;5067607;27;97210;-77
2024/02/16 00:41:07;;;;;;;2.88;1.10;;;;;;;21.53;47.29;100874.13;5050021;27;116843;-77
2024/02/16 00:43:32;;;;;;;2.92;1.30;;;;;;;21.53;46.83;100880.28;5057247;27;99440;-77
2024/02/16 00:45:58;;;;;;;2.33;1.02;;;;;;;21.53;47.27;100872.34;5067845;27;98751;-76
2024/02/16 00:48:24;;;;;;;2.67;0.93;;;;;;;21.54;47.14;100870.56;5066562;27;96882;-77
2024/02/16 00:50:49;;;;;;;2.33;1.00;;;;;;;21.52;47.15;100869.75;5052856;27;97745;-77
2024/02/16 00:53:14;;;;;;;2.70;0.82;;;;;;;21.53;47.01;100874.13;5049364;27;97303;-77
2024/02/16 00:55:41;;;;;;;2.05;1.00;;;;;;;21.53;47.20;100882.09;5032025;27;96987;-77
2024/02/16 00:58:07;;;;;;;3.03;0.95;;;;;;;21.54;47.17;100881.19;5064494;27;96922;-77
2024/02/16 01:00:32;;;;;;;2.60;1.45;;;;;;;21.53;47.07;100884.75;5038779;27;96811;-77
2024/02/16 01:02:58;;;;;;;2.42;1.50;;;;;;;21.54;47.06;100875.88;5038091;27;96966;-77
2024/02/16 01:05:23;;;;;;;2.50;0.70;;;;;;;21.52;47.22;100875.94;5047551;27;96765;-76
2024/02/16 01:07:48;;;;;;;1.80;0.80;;;;;;;21.54;46.99;100881.19;5051505;27;97497;-77
2024/02/16 01:10:14;;;;;;;2.63;1.10;;;;;;;21.53;47.18;100874.13;5051258;27;97959;-76
2024/02/16 01:12:39;;;;;;;1.80;0.77;;;;;;;21.53;46.88;100866.16;5043745;27;97386;-77
2024/02/16 01:15:05;;;;;;;1.58;0.82;;;;;;;21.53;46.97;100868.81;5046800;27;97031;-77
2024/02/16 01:17:32;;;;;;;3.30;1.00;;;;;;;21.54;47.35;100868.78;5037637;27;96934;-77
2024/02/16 01:19:58;;;;;;;1.92;0.80;;;;;;;21.53;47.04;100867.03;5045391;27;97970;-77
2024/02/16 01:22:24;;;;;;;1.77;0.77;;;;;;;21.53;47.02;100861.72;5041173;27;98005;-76
2024/02/16 01:24:49;;;;;;;1.65;0.90;;;;;;;21.53;47.03;100858.22;5024119;27;97098;-77
2024/02/16 01:27:16;;;;;;;1.95;0.80;;;;;;;21.53;47.02;100853.75;5052344;27;97700;-77
2024/02/16 01:29:41;;;;;;;2.70;1.42;;;;;;;21.53;47.18;100858.22;5043760;27;97201;-76
2024/02/16 01:32:07;;;;;;;2.67;0.80;;;;;;;21.54;46.94;100865.25;5050410;27;97856;-76
2024/02/16 01:34:32;;;;;;;3.50;1.40;;;;;;;21.53;47.01;100860.84;5032644;27;97504;-77
2024/02/16 01:36:58;;;;;;;3.00;1.63;;;;;;;21.53;47.15;100856.41;5046119;27;97475;-77
2024/02/16 01:39:24;;;;;;;2.85;0.90;;;;;;;21.54;46.87;100859.94;5046033;27;98552;-76
2024/02/16 01:41:49;;;;;;;2.60;1.35;;;;;;;21.53;46.94;100852.91;5048643;27;97808;-76
2024/02/16 01:44:16;;;;;;;2.42;1.38;;;;;;;21.53;46.98;100855.56;5045130;27;106355;-77
2024/02/16 01:46:42;;;;;;;2.33;1.60;;;;;;;21.54;46.90;100854.66;5043949;27;97878;-77
2024/02/16 01:49:08;;;;;;;2.97;0.80;;;;;;;21.54;47.13;100857.31;5049076;27;97468;-77
2024/02/16 01:51:35;;;;;;;2.20;1.50;;;;;;;21.54;47.09;100850.19;5032459;27;96776;-77
2024/02/16 01:54:01;;;;;;;2.90;1.92;;;;;;;21.54;47.01;100850.19;5044249;27;97328;-77
2024/02/16 01:56:27;;;;;;;2.08;0.77;;;;;;;21.54;46.95;100849.34;5055945;27;97269;-77
2024/02/16 01:58:52;;;;;;;1.83;0.85;;;;;;;21.53;46.83;100848.44;5045541;27;96877;-77
2024/02/16 02:01:19;;;;;;;5.25;1.58;;;;;;;21.53;46.80;100837.84;5049836;27;97605;-77
2024/02/16 02:03:44;;;;;;;1.83;0.85;;;;;;;21.52;46.85;100841.44;5051685;27;96821;-76
2024/02/16 02:06:09;;;;;;;2.47;1.25;;;;;;;21.53;47.33;100836.97;5039731;27;96961;-77
2024/02/16 02:08:35;;;;;;;1.77;0.82;;;;;;;21.54;46.87;100842.25;5060322;27;98026;-77
2024/02/16 02:11:01;;;;;;;3.83;1.55;;;;;;;21.54;46.90;100838.72;5048134;27;121762;-77
2024/02/16 02:13:27;;;;;;;2.53;1.45;;;;;;;21.53;47.02;100829.00;5042317;27;96787;-77
2024/02/16 02:15:53;;;;;;;2.40;1.45;;;;;;;21.53;46.81;100823.72;5042754;27;97057;-76
2024/02/16 02:18:19;;;;;;;2.45;1.70;;;;;;;21.53;47.04;100824.56;5049535;27;96797;-76
2024/02/16 02:20:44;;;;;;;3.17;1.35;;;;;;;21.53;46.84;100821.06;5041685;27;99267;-77
2024/02/16 02:23:10;;;;;;;1.65;0.80;;;;;;;21.52;47.02;100828.16;5049642;27;96866;-77
2024/02/16 02:25:36;;;;;;;3.63;1.67;;;;;;;21.53;47.01;100826.34;5041456;27;104429;-77
2024/02/16 02:28:02;;;;;;;2.08;0.85;;;;;;;21.53;46.84;100821.06;5052987;27;97964;-77
2024/02/16 02:30:28;;;;;;;2.35;1.40;;;;;;;21.53;47.07;100829.00;5048244;27;99727;-76
2024/02/16 02:32:53;;;;;;;2.53;0.88;;;;;;;21.53;47.04;100821.91;5047248;27;97133;-77
2024/02/16 02:35:19;;;;;;;2.58;0.70;;;;;;;21.53;46.92;100821.06;5048838;27;96755;-77
2024/02/16 02:37:44;;;;;;;2.55;1.40;;;;;;;21.53;46.89;100805.13;5055988;27;97159;-77
2024/02/16 02:40:10;;;;;;;2.00;0.88;;;;;;;21.53;46.86;100811.28;5053537;27;99587;-77
2024/02/16 02:42:35;;;;;;;2.60;0.90;;;;;;;21.53;46.84;100813.09;5056184;27;97596;-77
2024/02/16 02:45:05;;;;;;;3.28;0.90;;;;;;;21.53;47.03;100802.47;5041677;27;97257;-76
2024/02/16 02:47:32;;;;;;;1.98;0.90;;;;;;;21.53;46.90;100807.78;5050958;27;97964;-76
2024/02/16 02:49:57;;;;;;;3.53;1.45;;;;;;;21.53;46.81;100802.47;5044487;27;96799;-77
2024/02/16 02:52:23;;;;;;;1.67;0.88;;;;;;;21.53;47.00;100807.78;5033077;27;96909;-77
2024/02/16 02:54:48;;;;;;;1.73;0.90;;;;;;;21.53;47.03;100810.44;5056711;27;97087;-76
2024/02/16 02:57:13;;;;;;;2.58;0.80;;;;;;;21.53;47.04;100790.06;5051732;27;119088;-77
2024/02/16 02:59:39;;;;;;;2.65;1.60;;;;;;;21.52;46.75;100788.34;5041724;27;96707;-77
2024/02/16 03:02:04;;;;;;;2.22;1.50;;;;;;;21.52;47.01;100788.34;5041512;27;96838;-77
2024/02/16 03:04:29;;;;;;;2.97;0.88;;;;;;;21.52;46.87;100784.84;5053857;27;97436;-77
2024/02/16 03:06:55;;;;;;;1.80;0.80;;;;;;;21.52;47.05;100784.84;5047571;27;104067;-76
2024/02/16 03:09:20;;;;;;;2.45;1.63;;;;;;;21.52;46.84;100798.09;5048153;27;97249;-77
2024/02/16 03:11:46;;;;;;;3.13;0.73;;;;;;;21.52;47.03;100795.44;5055583;27;96973;-77
2024/02/16 03:14:11;;;;;;;3.05;1.83;;;;;;;21.53;47.01;100782.09;5053699;27;96687;-77
2024/02/16 03:16:37;;;;;;;2.28;1.40;;;;;;;21.53;47.03;100781.25;5042406;27;105918;-77
2024/02/16 03:19:06;;;;;;;1.95;1.38;;;;;;;21.52;46.74;100784.84;5034446;27;97283;-77
2024/02/16 03:21:32;;;;;;;;;;;;;;;21.47;46.83;100791.16;5048576;27;97013;-77
2024/02/16 03:23:57;;;;;;;2.15;1.08;;;;;;;21.48;47.07;100779.63;5049706;27;97453;-76
2024/02/16 03:26:23;;;;;;;1.73;0.70;;;;;;;21.50;46.91;100784.88;5052419;27;100655;-76
2024/02/16 03:28:48;;;;;;;2.15;0.95;;;;;;;21.51;47.12;100783.09;5058232;27;120907;-77
2024/02/16 03:31:16;;;;;;;2.20;1.00;;;;;;;21.51;46.83;100777.78;5062432;27;97098;-76
2024/02/16 03:33:42;;;;;;;2.00;0.90;;;;;;;21.51;47.07;100776.00;5066001;27;97297;-77
2024/02/16 03:36:08;;;;;;;2.40;1.42;;;;;;;21.51;46.70;100775.13;5065951;27;100565;-77
2024/02/16 03:38:34;;;;;;;2.08;0.90;;;;;;;21.51;46.66;100764.50;5051435;27;97533;-77
2024/02/16 03:40:59;;;;;;;1.67;0.70;;;;;;;21.51;47.03;100776.00;5062364;27;96719;-77
2024/02/16 03:43:25;;;;;;;2.10;1.48;;;;;;;21.51;46.59;100778.63;5058919;27;106963;-77
2024/02/16 03:45:50;;;;;;;1.80;1.10;;;;;;;21.51;47.01;100783.09;5066539;27;119010;-77
2024/02/16 03:48:16;;;;;;;3.28;1.40;;;;;;;21.52;46.75;100787.50;5067069;27;97451;-76
2024/02/16 03:50:41;;;;;;;1.85;0.80;;;;;;;21.51;47.01;100780.44;5057042;27;96805;-76
2024/02/16 03:53:06;;;;;;;1.92;0.80;;;;;;;21.51;46.97;100767.16;5065715;27;111717;-77
2024/02/16 03:55:36;;;;;;;2.58;1.60;;;;;;;21.52;46.97;100772.44;5048301;27;98372;-77
2024/02/16 03:58:02;;;;;;;2.40;0.82;;;;;;;21.52;46.61;100783.03;5056907;27;97424;-76
2024/02/16 04:00:28;;;;;;;1.85;1.20;;;;;;;21.52;46.90;100780.38;5058278;27;96966;-77
2024/02/16 04:02:53;;;;;;;2.13;1.45;;;;;;;21.53;47.20;100778.59;5057724;27;97517;-77
2024/02/16 04:05:19;;;;;;;1.67;0.75;;;;;;;21.52;46.84;100779.53;5034677;27;99636;-76
2024/02/16 04:07:44;;;;;;;2.00;0.90;;;;;;;21.52;46.84;100783.03;5066934;27;97727;-77
2024/02/16 04:10:09;;;;;;;2.47;1.60;;;;;;;21.52;46.62;100783.03;5053367;27;96707;-77
2024/02/16 04:12:36;;;;;;;2.67;1.65;;;;;;;21.51;47.12;100783.94;5034954;27;96818;-76
2024/02/16 04:15:01;;;;;;;2.17;1.88;;;;;;;21.52;46.74;100783.03;5053671;27;97332;-77
2024/02/16 04:17:27;;;;;;;2.10;0.90;;;;;;;21.52;46.91;100777.72;5053413;27;97729;-77
2024/02/16 04:19:52;;;;;;;2.13;1.67;;;;;;;21.52;46.90;100777.72;5051832;27;96993;-77
2024/02/16 04:22:18;;;;;;;1.73;1.23;;;;;;;21.52;46.95;100774.22;5046751;27;96872;-77
2024/02/16 04:24:43;;;;;;;2.63;1.58;;;;;;;21.52;46.76;100771.56;5034428;27;100222;-77
2024/02/16 04:27:08;;;;;;;1.38;0.60;;;;;;;21.52;46.77;100777.72;5051801;27;118917;-77
2024/02/16 04:29:34;;;;;;;1.85;0.88;;;;;;;21.52;46.67;100777.72;5050206;27;106572;-77
2024/02/16 04:31:59;;;;;;;2.03;1.48;;;;;;;21.52;46.64;100776.88;5051138;27;99462;-77
2024/02/16 04:34:24;;;;;;;2.53;1.10;;;;;;;21.53;46.65;100778.59;5051505;27;111010;-76
2024/02/16 04:36:50;;;;;;;2.00;1.60;;;;;;;21.53;46.90;100775.94;5047815;27;107709;-77
2024/02/16 04:39:17;;;;;;;2.22;1.48;;;;;;;21.52;46.58;100779.53;5037974;27;104226;-76
2024/02/16 04:41:42;;;;;;;1.75;0.93;;;;;;;21.53;46.63;100783.91;5053235;27;96907;-77
2024/02/16 04:44:08;;;;;;;1.52;0.85;;;;;;;21.53;46.80;100792.72;5042374;27;97231;-77
2024/02/16 04:46:33;;;;;;;2.00;1.52;;;;;;;21.53;46.74;100791.84;5049229;27;98033;-77
2024/02/16 04:48:58;;;;;;;2.15;1.45;;;;;;;21.52;46.95;100784.84;5050224;27;112040;-77
2024/02/16 04:51:24;;;;;;;2.20;0.90;;;;;;;21.52;46.71;100791.00;5049703;27;96652;-77
2024/02/16 04:53:49;;;;;;;2.28;0.90;;;;;;;21.52;47.04;100788.34;5047729;27;96807;-77
2024/02/16 04:56:15;;;;;;;1.73;0.85;;;;;;;21.53;46.51;100798.03;5054033;27;118362;-77
2024/02/16 04:58:42;;;;;;;2.33;0.82;;;;;;;21.53;46.67;100783.91;5053528;27;97040;-76
2024/02/16 05:01:07;;;;;;;3.17;1.60;;;;;;;21.53;46.87;100790.06;5041427;27;96975;-77
2024/02/16 05:03:32;;;;;;;1.92;1.23;;;;;;;21.52;46.53;100787.50;5044495;27;97929;-77
2024/02/16 05:06:00;;;;;;;1.67;0.80;;;;;;;21.51;46.52;100778.63;5050998;27;108368;-77
2024/02/16 05:08:25;;;;;;;2.00;0.80;;;;;;;21.53;46.61;100778.59;5043213;27;97226;-76
2024/02/16 05:10:50;;;;;;;2.53;1.23;;;;;;;21.53;46.48;100789.22;5043418;27;97107;-77
2024/02/16 05:13:17;;;;;;;2.55;1.42;;;;;;;21.53;46.65;100773.28;5039923;27;98109;-77
2024/02/16 05:15:43;;;;;;;2.78;0.93;;;;;;;21.52;46.57;100772.44;5052322;27;97751;-77
2024/02/16 05:18:11;;;;;;;2.17;1.20;;;;;;;21.52;46.84;100785.69;5051293;27;96703;-76
2024/02/16 05:20:36;;;;;;;2.33;1.00;;;;;;;21.52;46.70;100768.91;5047148;27;97628;-77
2024/02/16 05:23:02;;;;;;;2.40;0.95;;;;;;;21.53;46.76;100794.50;5062821;27;97507;-77
2024/02/16 05:25:27;;;;;;;2.20;1.00;;;;;;;21.52;46.42;100782.19;5052771;27;98382;-77
2024/02/16 05:27:52;;;;;;;2.33;1.50;;;;;;;21.52;46.54;100779.53;5055011;27;99255;-76
2024/02/16 05:30:18;;;;;;;2.38;1.70;;;;;;;21.52;46.87;100782.19;5047370;27;97069;-77
2024/02/16 05:32:47;;;;;;;2.20;1.23;;;;;;;21.53;46.71;100786.56;5059947;27;96875;-76
2024/02/16 05:35:14;;;;;;;;;;;;;;;21.47;46.93;100777.88;5042815;27;97363;-76
2024/02/16 05:37:44;;;;;;;1.60;0.70;;;;;;;21.48;46.65;100779.63;5055367;27;96959;-77
2024/02/16 05:40:22;;;;;;;1.98;1.17;;;;;;;21.49;46.44;100776.03;5048575;27;96852;-76
2024/02/16 05:42:48;;;;;;;1.90;1.00;;;;;;;21.49;46.64;100769.88;5061408;27;97566;-77
2024/02/16 05:45:14;;;;;;;1.75;1.20;;;;;;;21.50;46.72;100776.94;5055217;27;96716;-77
2024/02/16 05:47:45;;;;;;;1.95;0.88;;;;;;;21.51;46.62;100772.47;5045409;27;97372;-77
2024/02/16 05:50:11;;;;;;;2.72;1.60;;;;;;;21.50;46.65;100771.63;5058535;27;96827;-76
2024/02/16 05:52:38;;;;;;;2.45;1.15;;;;;;;21.51;46.58;100777.78;5056219;27;97893;-76
2024/02/16 05:55:04;;;;;;;2.28;1.52;;;;;;;21.51;46.45;100780.44;5059497;27;97892;-76
2024/02/16 05:57:29;;;;;;;2.40;1.42;;;;;;;21.51;46.54;100777.78;5045867;27;97079;-77
2024/02/16 05:59:55;;;;;;;2.75;1.52;;;;;;;21.51;46.64;100780.44;5043483;27;97046;-76
2024/02/16 06:02:21;;;;;;;1.67;1.00;;;;;;;21.51;46.78;100780.44;5046787;27;97337;-77
2024/02/16 06:04:46;;;;;;;1.85;1.10;;;;;;;21.50;46.68;100779.56;5043934;27;106931;-76
2024/02/16 06:07:11;;;;;;;1.58;0.82;;;;;;;21.51;46.72;100783.94;5050636;27;100705;-76
2024/02/16 06:09:37;;;;;;;2.00;0.80;;;;;;;21.51;46.62;100785.75;5045353;27;96886;-77
2024/02/16 06:12:04;;;;;;;1.92;1.02;;;;;;;21.51;46.78;100802.53;5030093;27;99228;-77
2024/02/16 06:14:33;;;;;;;2.25;1.55;;;;;;;21.51;46.58;100807.84;5059644;27;97912;-76
2024/02/16 06:16:59;;;;;;;2.53;1.52;;;;;;;21.51;46.43;100805.19;5061098;27;96825;-76
2024/02/16 06:19:25;;;;;;;1.60;0.80;;;;;;;21.51;46.39;100805.19;5060779;27;97143;-77
2024/02/16 06:21:51;;;;;;;3.80;1.42;;;;;;;21.51;46.41;100809.63;5055345;27;97227;-77
2024/02/16 06:24:17;;;;;;;2.13;1.20;;;;;;;21.51;46.82;100810.47;5054731;27;97582;-77
2024/02/16 06:26:43;;;;;;;1.92;1.20;;;;;;;21.51;46.83;100812.28;5050576;27;99298;-77
2024/02/16 06:29:08;;;;;;;2.67;1.80;;;;;;;21.51;46.77;100814.94;5046745;27;97015;-77
2024/02/16 06:31:34;;;;;;;2.65;1.67;;;;;;;21.51;46.48;100814.94;5054174;27;97409;-77
2024/02/16 06:33:59;;;;;;;2.00;0.82;;;;;;;21.51;46.56;100820.25;5054637;27;103975;-77
2024/02/16 06:36:24;;;;;;;2.25;1.52;;;;;;;21.49;46.66;100818.50;5056235;27;97369;-76
2024/02/16 06:38:51;;;;;;;2.33;1.70;;;;;;;21.51;46.59;100822.91;5055604;27;96840;-76
2024/02/16 06:41:16;;;;;;;2.15;1.10;;;;;;;21.51;46.63;100822.91;5046592;27;97998;-77
2024/02/16 06:43:43;;;;;;;1.80;1.40;;;;;;;21.52;46.75;100835.25;5054845;27;97493;-76
2024/02/16 06:46:08;;;;;;;1.58;1.20;;;;;;;21.51;46.33;100820.25;5048103;27;96761;-76
2024/02/16 06:48:33;;;;;;;1.80;1.20;;;;;;;21.52;46.49;100824.66;5052555;27;96852;-77
2024/02/16 06:50:59;;;;;;;1.75;1.27;;;;;;;21.51;46.78;100829.06;5053110;27;97117;-77
2024/02/16 06:53:24;;;;;;;2.78;1.50;;;;;;;21.51;46.42;100829.06;5036520;27;102508;-76
2024/02/16 06:55:51;;;;;;;2.42;1.85;;;;;;;21.52;46.56;100829.94;5046404;27;96767;-76
2024/02/16 06:58:16;;;;;;;2.40;0.90;;;;;;;21.51;46.56;100844.97;5050233;27;96841;-77
2024/02/16 07:00:42;;;;;;;1.77;0.70;;;;;;;21.52;46.61;100845.88;5053771;27;106705;-76
2024/02/16 07:03:08;;;;;;;2.28;1.00;;;;;;;21.52;46.87;100853.84;5051358;27;97230;-77
2024/02/16 07:05:34;;;;;;;2.38;0.90;;;;;;;21.52;46.57;100854.69;5034375;27;97487;-77
2024/02/16 07:08:00;;;;;;;2.67;1.63;;;;;;;21.51;46.44;100857.41;5061179;27;97290;-77
2024/02/16 07:10:25;;;;;;;1.95;0.80;;;;;;;21.52;46.38;100861.78;5054357;27;97989;-77
2024/02/16 07:12:50;;;;;;;2.42;1.42;;;;;;;21.52;46.30;100867.09;5053083;27;102873;-77
2024/02/16 07:15:16;;;;;;;2.05;0.80;;;;;;;21.51;46.48;100874.19;5057037;27;97345;-77
2024/02/16 07:17:41;;;;;;;2.05;0.85;;;;;;;21.52;46.33;100875.94;5046956;27;97334;-77
2024/02/16 07:20:07;;;;;;;2.50;1.00;;;;;;;21.52;46.33;100877.72;5048678;27;98783;-77
2024/02/16 07:22:33;;;;;;;2.38;1.08;;;;;;;21.52;46.71;100883.03;5044682;27;98180;-77
2024/02/16 07:25:03;;;;;;;3.13;1.70;;;;;;;21.52;46.55;100883.88;5042141;27;96887;-77
2024/02/16 07:27:29;;;;;;;3.10;1.70;;;;;;;21.52;46.62;100883.03;5037347;27;96745;-77
2024/02/16 07:29:54;;;;;;;1.92;1.42;;;;;;;21.52;46.53;100889.19;5047690;27;97615;-77
2024/02/16 07:32:20;;;;;;;2.85;1.23;;;;;;;21.52;46.42;100897.16;5048560;27;120631;-77
2024/02/16 07:34:47;;;;;;;2.20;1.45;;;;;;;21.53;46.62;100893.56;5048147;27;111408;-77
2024/02/16 07:37:13;;;;;;;2.22;1.10;;;;;;;21.53;46.83;100890.06;5051142;27;96822;-78
2024/02/16 07:39:38;;;;;;;2.00;0.90;;;;;;;21.53;46.35;100893.56;5057979;27;98973;-78
2024/02/16 07:42:20;;;;;;;2.53;1.70;;;;;;;21.51;46.46;100905.16;5047193;27;100720;-78
2024/02/16 07:44:55;;;;;;;2.03;0.80;;;;;;;21.52;46.64;100904.25;5051542;27;98714;-78
2024/02/16 07:47:20;;;;;;;2.00;1.50;;;;;;;21.52;46.37;100909.56;5048335;27;97170;-78
2024/02/16 07:49:46;;;;;;;2.25;1.10;;;;;;;21.52;46.44;100914.88;5041152;27;113202;-77
2024/02/16 07:52:11;;;;;;;2.80;1.70;;;;;;;21.53;46.58;100911.28;5035795;27;97672;-77
2024/02/16 07:54:37;;;;;;;2.13;1.40;;;;;;;21.52;46.43;100915.72;5035748;27;96769;-77
2024/02/16 07:57:04;;;;;;;1.63;0.77;;;;;;;21.53;46.77;100916.59;5045160;27;96799;-78
2024/02/16 07:59:29;;;;;;;2.90;1.88;;;;;;;21.53;46.54;100916.59;5060077;27;98087;-78
2024/02/16 08:01:54;;;;;;;3.28;0.90;;;;;;;21.53;46.71;100913.94;5048743;27;97188;-77
2024/02/16 08:04:20;;;;;;;2.92;1.85;;;;;;;21.53;46.60;100921.91;5050065;27;97001;-78
2024/02/16 08:06:45;;;;;;;2.47;0.95;;;;;;;21.53;46.54;100928.06;5048634;27;107287;-78
2024/02/16 08:09:10;;;;;;;2.33;1.00;;;;;;;21.53;46.71;100922.75;5050402;27;124716;-77
2024/02/16 08:11:36;;;;;;;2.33;1.55;;;;;;;21.53;46.67;100930.72;5049944;27;96951;-77
2024/02/16 08:14:02;;;;;;;2.10;1.65;;;;;;;21.53;46.33;100930.72;5060459;27;108617;-78
2024/02/16 08:16:28;;;;;;;2.40;1.00;;;;;;;21.53;46.55;100925.41;5055234;27;96715;-78
2024/02/16 08:18:53;;;;;;;2.75;1.65;;;;;;;21.54;46.59;100926.31;5062809;27;96889;-77
2024/02/16 08:21:18;;;;;;;2.53;1.40;;;;;;;21.54;46.34;100934.25;5052137;27;97149;-78
2024/02/16 08:23:44;;;;;;;3.75;1.50;;;;;;;21.54;46.48;100934.25;5051759;27;96813;-78
2024/02/16 08:26:09;;;;;;;2.65;0.80;;;;;;;21.53;46.36;100944.00;5057258;27;96739;-78
2024/02/16 08:28:34;;;;;;;2.25;1.55;;;;;;;21.54;46.68;100947.53;5054110;27;96917;-78
2024/02/16 08:31:00;;;;;;;3.50;1.67;;;;;;;21.54;46.37;100955.50;5036662;27;96908;-78
2024/02/16 08:33:26;;;;;;;4.60;1.83;;;;;;;21.55;46.53;100951.91;5050618;27;96929;-78
2024/02/16 08:35:51;;;;;;;2.60;1.02;;;;;;;21.54;46.34;100950.19;5049338;27;96831;-78
2024/02/16 08:38:17;;;;;;;3.17;0.98;;;;;;;21.54;46.23;100955.50;5061371;27;97553;-78
2024/02/16 08:40:42;;;;;;;3.08;1.00;;;;;;;21.54;46.56;100960.81;5060686;27;96779;-78
2024/02/16 08:43:07;;;;;;;2.42;0.80;;;;;;;21.54;46.70;100971.41;5048283;27;97065;-78
2024/02/16 08:45:34;;;;;;;2.55;1.15;;;;;;;21.54;46.40;100971.41;5051825;27;97052;-77
2024/02/16 08:48:01;;;;;;;3.58;1.60;;;;;;;21.54;46.60;100976.72;5056575;27;97497;-77
2024/02/16 08:50:26;;;;;;;2.72;1.10;;;;;;;21.54;46.32;100977.59;5033028;27;100457;-77
2024/02/16 08:52:52;;;;;;;3.30;1.77;;;;;;;21.55;46.42;100978.44;5055470;27;98200;-78
2024/02/16 08:55:17;;;;;;;3.40;1.05;;;;;;;21.54;46.53;100984.69;5054527;27;96925;-77
2024/02/16 08:57:43;;;;;;;2.00;1.65;;;;;;;21.54;46.34;100993.50;5052627;27;123319;-77
2024/02/16 09:00:09;;;;;;;3.75;1.67;;;;;;;21.54;46.47;100995.31;5041382;27;100758;-77
2024/02/16 09:02:35;;;;;;;3.03;1.50;;;;;;;21.55;46.41;100999.69;5053518;27;96828;-77
2024/02/16 09:05:00;;;;;;;3.42;1.10;;;;;;;21.55;46.43;101004.97;5053008;27;97440;-77
2024/02/16 09:07:26;;;;;;;1.73;0.82;;;;;;;21.55;46.69;101000.56;5044880;27;125453;-77
2024/02/16 09:09:51;;;;;;;3.28;1.17;;;;;;;21.55;46.54;101002.34;5026330;27;99791;-78
2024/02/16 09:12:17;;;;;;;2.75;1.13;;;;;;;21.55;46.42;101016.50;5034984;27;96843;-77
2024/02/16 09:14:42;;;;;;;2.83;1.20;;;;;;;21.56;46.53;101006.75;5044503;27;96862;-78
2024/02/16 09:17:08;;;;;;;2.88;1.13;;;;;;;21.56;46.40;101012.03;5048522;27;96936;-78
2024/02/16 09:19:33;;;;;;;3.75;1.00;;;;;;;21.56;46.67;101004.94;5050646;27;97201;-78
2024/02/16 09:22:01;;;;;;;3.50;1.83;;;;;;;21.56;46.44;101015.56;5043717;27;96784;-78
2024/02/16 09:24:29;;;;;;;3.30;1.50;;;;;;;21.56;46.49;101018.22;5047387;27;96941;-78
2024/02/16 09:26:55;;;;;;;2.72;1.10;;;;;;;21.57;46.27;101019.06;5030981;27;97179;-78
2024/02/16 09:29:20;;;;;;;2.40;1.10;;;;;;;21.57;46.33;101030.59;5037632;27;98646;-77
2024/02/16 09:31:50;;;;;;;2.92;0.95;;;;;;;21.57;46.35;101029.69;5041959;27;106947;-77
2024/02/16 09:34:16;;;;;;;11.07;2.10;;;;;;;21.57;46.66;101027.94;5050485;27;96740;-78
2024/02/16 09:36:42;;;;;;;3.78;1.17;;;;;;;21.58;46.37;101039.41;5050867;27;127367;-78
2024/02/16 09:39:07;;;;;;;2.35;1.80;;;;;;;21.58;46.28;101045.56;5047007;27;97207;-78
2024/02/16 09:41:37;;;;;;;3.85;1.25;;;;;;;21.57;46.73;101045.63;5051665;27;97314;-78
2024/02/16 09:44:03;;;;;;;4.60;1.23;;;;;;;21.57;46.46;101051.81;5055263;27;97206;-77
2024/02/16 09:46:30;;;;;;;2.50;1.10;;;;;;;21.57;46.45;101054.47;5051206;27;97569;-78
2024/02/16 09:48:56;;;;;;;3.40;1.20;;;;;;;21.58;46.53;101055.34;5059526;27;97347;-77
2024/02/16 09:51:22;;;;;;;2.60;1.20;;;;;;;21.59;46.47;101065.03;5041861;27;97144;-77
2024/02/16 09:53:55;;;;;;;3.20;1.30;;;;;;;21.59;46.54;101067.69;5042854;27;97365;-78
2024/02/16 09:56:21;;;;;;;2.38;1.20;;;;;;;21.59;46.29;101070.34;5038430;27;100186;-78
2024/02/16 09:58:46;;;;;;;3.60;1.90;;;;;;;21.60;46.29;101067.63;5049500;27;96720;-78
2024/02/16 10:01:20;;;;;;;4.15;1.30;;;;;;;21.60;46.51;101074.72;5061592;27;97072;-78
2024/02/16 10:03:46;;;;;;;3.42;2.00;;;;;;;21.60;46.29;101072.06;5044801;27;97342;-78
2024/02/16 10:06:14;;;;;;;2.88;1.38;;;;;;;21.60;46.40;101077.38;5032570;27;97019;-77
2024/02/16 10:08:49;;;;;;;3.38;1.92;;;;;;;21.59;46.73;101084.47;5031669;27;98665;-78
2024/02/16 10:11:15;;;;;;;4.78;1.83;;;;;;;21.59;46.47;101097.75;5040196;27;96747;-78
2024/02/16 10:13:41;;;;;;;3.47;1.50;;;;;;;21.60;46.32;101090.66;5044078;27;96866;-77
2024/02/16 10:16:11;;;;;;;3.47;1.30;;;;;;;21.60;46.63;101095.97;5062181;27;117825;-77
2024/02/16 10:18:38;;;;;;;2.88;1.55;;;;;;;21.60;46.45;101099.47;5046354;27;97030;-76
2024/02/16 10:21:03;;;;;;;3.28;1.40;;;;;;;21.60;46.71;101107.44;5048233;27;96893;-77
2024/02/16 10:23:29;;;;;;;2.53;1.20;;;;;;;21.60;46.39;101107.44;5048496;27;97017;-79
2024/02/16 10:25:55;;;;;;;4.57;2.22;;;;;;;21.60;46.43;101123.38;5057928;27;97616;-78
2024/02/16 10:28:27;;;;;;;4.57;2.33;;;;;;;21.59;46.59;101126.94;5059652;27;99026;-79
2024/02/16 10:30:57;;;;;;;4.15;2.33;;;;;;;21.59;46.53;101120.78;5052616;27;96801;-79
2024/02/16 10:33:24;;;;;;;4.03;2.15;;;;;;;21.60;46.33;101133.97;5046528;27;96955;-76
2024/02/16 10:35:50;;;;;;;3.95;1.63;;;;;;;21.61;46.53;101132.22;5039927;27;96719;-77
2024/02/16 10:38:16;;;;;;;6.15;2.42;;;;;;;21.60;46.58;101125.16;5045851;27;97279;-77
2024/02/16 10:40:42;;;;;;;6.03;1.58;;;;;;;21.59;46.59;101132.25;5039452;27;96733;-77
2024/02/16 10:43:09;;;;;;;4.32;2.63;;;;;;;21.60;46.39;101144.59;5047952;27;96754;-77
2024/02/16 10:45:36;;;;;;;3.38;1.42;;;;;;;21.60;46.44;101157.00;5048208;27;96919;-77
2024/02/16 10:48:02;;;;;;;4.38;2.00;;;;;;;21.61;46.36;101153.47;5047313;27;98937;-77
2024/02/16 10:50:28;;;;;;;4.72;2.55;;;;;;;21.60;46.58;101157.00;5048541;27;97297;-77
2024/02/16 10:52:56;;;;;;;4.05;1.70;;;;;;;21.60;46.60;101157.00;5041894;27;96946;-77
2024/02/16 10:55:23;;;;;;;3.05;2.00;;;;;;;21.60;46.26;101157.00;5046391;27;98833;-77
2024/02/16 10:57:50;;;;;;;5.70;1.52;;;;;;;21.59;46.47;101165.91;5059186;27;98491;-77
2024/02/16 11:00:17;;;;;;;3.08;1.48;;;;;;;21.60;46.52;101168.50;5045776;27;96808;-77
2024/02/16 11:02:58;;;;;;;3.17;1.40;;;;;;;21.59;46.25;101165.91;5049423;27;96960;-77
2024/02/16 11:05:42;;;;;;;3.70;1.42;;;;;;;21.58;46.42;101169.47;5051480;27;96848;-77
2024/02/16 11:08:13;;;;;;;2.97;2.25;;;;;;;21.58;46.57;101172.97;5045255;27;96836;-77
2024/02/16 11:10:38;;;;;;;2.78;1.48;;;;;;;21.58;46.27;101175.63;5041174;27;98642;-77
2024/02/16 11:13:04;;;;;;;3.47;1.52;;;;;;;21.58;46.60;101180.94;5064029;27;115600;-77
2024/02/16 11:15:34;;;;;;;2.70;1.38;;;;;;;21.59;46.33;101181.84;5045288;27;97595;-77
2024/02/16 11:18:04;;;;;;;3.53;1.23;;;;;;;21.58;46.55;101191.56;5041838;27;97368;-76
2024/02/16 11:20:38;;;;;;;4.00;2.10;;;;;;;21.58;46.39;101191.56;5050376;27;97756;-77